createdAt,value
2023-05-06T00:01:17.019Z,5.60
2023-05-06T00:04:03.562Z,5.53
2023-05-06T00:06:49.896Z,5.85
2023-05-06T00:09:36.202Z,5.80
2023-05-06T00:12:22.508Z,5.70
2023-05-06T00:15:09.659Z,5.70
2023-05-06T00:17:56.899Z,5.93
2023-05-06T00:20:43.233Z,5.62
2023-05-06T00:23:29.582Z,5.78
2023-05-06T00:26:16.256Z,5.80
2023-05-06T00:29:02.349Z,6.12
2023-05-06T00:31:48.923Z,6.32
2023-05-06T00:34:35.361Z,6.32
2023-05-06T00:37:21.705Z,5.90
2023-05-06T00:40:08.873Z,6.57
2023-05-06T00:42:55.793Z,5.97
2023-05-06T00:45:42.212Z,6.55
2023-05-06T00:48:28.907Z,6.35
2023-05-06T00:51:15.067Z,6.40
2023-05-06T00:54:02.206Z,6.28
2023-05-06T00:56:48.394Z,6.10
2023-05-06T00:59:34.727Z,6.10
2023-05-06T01:02:21.223Z,6.25
2023-05-06T01:05:09.145Z,6.28
2023-05-06T01:08:07.109Z,6.20
2023-05-06T01:10:57.677Z,6.45
2023-05-06T01:14:02.681Z,6.65
2023-05-06T01:16:54.754Z,6.85
2023-05-06T01:19:59.407Z,7.37
2023-05-06T01:22:45.963Z,6.85
2023-05-06T01:25:33.811Z,6.57
2023-05-06T01:28:20.884Z,7.20
2023-05-06T01:31:10.885Z,6.97
2023-05-06T01:34:06.275Z,6.80
2023-05-06T01:36:55.381Z,7.30
2023-05-06T01:39:42.072Z,6.62
2023-05-06T01:42:32.417Z,7.53
2023-05-06T01:45:20.057Z,6.70
2023-05-06T01:48:06.924Z,6.87
2023-05-06T01:50:53.765Z,7.20
2023-05-06T01:53:40.112Z,7.12
2023-05-06T01:56:27.081Z,6.80
2023-05-06T01:59:13.548Z,6.97
2023-05-06T02:01:59.986Z,6.80
2023-05-06T02:04:46.881Z,6.47
2023-05-06T02:07:33.256Z,6.10
2023-05-06T02:10:19.691Z,6.37
2023-05-06T02:13:06.710Z,5.97
2023-05-06T02:15:54.552Z,6.05
2023-05-06T02:18:41.563Z,6.95
2023-05-06T02:21:28.400Z,6.05
2023-05-06T02:24:15.169Z,7.17
2023-05-06T02:27:02.356Z,6.57
2023-05-06T02:29:48.837Z,6.53
2023-05-06T02:32:36.230Z,6.93
2023-05-06T02:35:23.258Z,6.50
2023-05-06T02:38:09.322Z,6.40
2023-05-06T02:40:55.720Z,6.97
2023-05-06T02:43:42.102Z,6.50
2023-05-06T02:46:28.561Z,7.20
2023-05-06T02:49:15.213Z,7.20
2023-05-06T02:52:01.625Z,6.95
2023-05-06T02:54:48.019Z,7.40
2023-05-06T02:57:34.448Z,6.90
2023-05-06T03:00:21.102Z,6.90
2023-05-06T03:03:09.880Z,6.87
2023-05-06T03:05:56.391Z,6.65
2023-05-06T03:08:43.217Z,7.10
2023-05-06T03:11:31.565Z,6.20
2023-05-06T03:14:18.848Z,6.78
2023-05-06T03:17:05.425Z,7.25
2023-05-06T03:19:53.747Z,7.10
2023-05-06T03:22:42.339Z,7.07
2023-05-06T03:25:29.230Z,7.05
2023-05-06T03:28:16.274Z,7.78
2023-05-06T03:31:04.570Z,7.43
2023-05-06T03:33:52.268Z,7.50
2023-05-06T03:36:39.803Z,7.80
2023-05-06T03:39:26.121Z,7.60
2023-05-06T03:42:12.805Z,7.97
2023-05-06T03:44:59.179Z,8.03
2023-05-06T03:47:48.120Z,7.82
2023-05-06T03:50:35.105Z,8.77
2023-05-06T03:53:22.140Z,8.05
2023-05-06T03:56:09.340Z,7.65
2023-05-06T03:58:56.164Z,7.97
2023-05-06T04:01:42.659Z,8.30
2023-05-06T04:04:29.947Z,7.85
2023-05-06T04:07:16.243Z,8.18
2023-05-06T04:10:03.824Z,8.30
2023-05-06T04:12:50.705Z,8.30
2023-05-06T04:15:38.704Z,8.00
2023-05-06T04:18:25.809Z,7.70
2023-05-06T04:21:12.917Z,7.82
2023-05-06T04:23:59.257Z,8.32
2023-05-06T04:26:46.548Z,8.05
2023-05-06T04:29:33.083Z,7.68
2023-05-06T04:32:20.928Z,7.40
2023-05-06T04:35:07.696Z,8.07
2023-05-06T04:37:56.647Z,7.85
2023-05-06T04:40:42.945Z,8.53
2023-05-06T04:43:29.921Z,8.18
2023-05-06T04:46:17.368Z,8.55
2023-05-06T04:49:04.785Z,8.65
2023-05-06T04:51:50.937Z,8.75
2023-05-06T04:54:37.802Z,8.65
2023-05-06T04:57:24.268Z,8.82
2023-05-06T05:00:12.501Z,8.73
2023-05-06T05:02:59.036Z,8.00
2023-05-06T05:05:45.905Z,7.60
2023-05-06T05:08:32.946Z,7.85
2023-05-06T05:11:20.232Z,8.18
2023-05-06T05:14:06.484Z,7.12
2023-05-06T05:16:53.135Z,7.25
2023-05-06T05:19:39.247Z,7.75
2023-05-06T05:22:26.868Z,7.90
2023-05-06T05:25:14.292Z,7.80
2023-05-06T05:28:01.592Z,8.15
2023-05-06T05:30:48.038Z,8.80
2023-05-06T05:33:34.490Z,8.80
2023-05-06T05:36:21.422Z,9.43
2023-05-06T05:39:09.295Z,8.98
2023-05-06T05:41:56.188Z,9.18
2023-05-06T05:44:42.991Z,9.70
2023-05-06T05:47:29.356Z,9.00
2023-05-06T05:50:16.392Z,9.02
2023-05-06T05:53:02.878Z,9.90
2023-05-06T05:55:49.636Z,9.50
2023-05-06T05:58:37.093Z,9.63
2023-05-06T06:01:23.940Z,9.23
2023-05-06T06:04:10.216Z,9.13
2023-05-06T06:06:59.192Z,9.57
2023-05-06T06:09:47.031Z,9.47
2023-05-06T06:12:33.607Z,9.70
2023-05-06T06:15:21.816Z,10.00
2023-05-06T06:18:09.072Z,9.60
2023-05-06T06:20:56.225Z,9.40
2023-05-06T06:23:43.153Z,9.52
2023-05-06T06:26:29.945Z,9.70
2023-05-06T06:29:16.459Z,10.20
2023-05-06T06:32:03.964Z,9.90
2023-05-06T06:34:50.112Z,9.53
2023-05-06T06:37:36.441Z,9.57
2023-05-06T06:40:22.931Z,9.63
2023-05-06T06:43:09.363Z,9.75
2023-05-06T06:49:04.202Z,9.60
2023-05-06T06:51:51.655Z,9.73
2023-05-06T06:54:38.828Z,9.32
2023-05-06T06:57:25.093Z,9.10
2023-05-06T07:00:11.934Z,9.80
2023-05-06T07:02:58.485Z,10.35
2023-05-06T07:05:45.564Z,9.60
2023-05-06T07:08:31.490Z,10.30
2023-05-06T07:11:17.834Z,10.05
2023-05-06T07:14:04.318Z,9.52
2023-05-06T07:16:51.602Z,10.02
2023-05-06T07:19:38.082Z,10.07
2023-05-06T07:22:24.521Z,9.93
2023-05-06T07:25:11.288Z,9.90
2023-05-06T07:27:58.161Z,10.07
2023-05-06T07:30:45.023Z,10.40
2023-05-06T07:33:31.473Z,10.60
2023-05-06T07:36:17.778Z,10.25
2023-05-06T07:39:04.533Z,9.82
2023-05-06T07:41:51.612Z,10.47
2023-05-06T07:44:38.286Z,9.95
2023-05-06T07:47:31.622Z,10.07
2023-05-06T07:50:18.356Z,10.30
2023-05-06T07:53:04.803Z,9.50
2023-05-06T07:55:52.493Z,10.52
2023-05-06T07:58:38.619Z,11.05
2023-05-06T08:01:26.004Z,11.10
2023-05-06T08:04:13.263Z,10.45
2023-05-06T08:06:59.652Z,10.70
2023-05-06T08:09:46.455Z,11.38
2023-05-06T08:12:32.624Z,11.80
2023-05-06T08:15:19.280Z,12.52
2023-05-06T08:18:21.011Z,11.80
2023-05-06T08:21:08.857Z,12.93
2023-05-06T08:23:55.955Z,12.67
2023-05-06T08:26:42.458Z,14.35
2023-05-06T08:29:29.382Z,14.98
2023-05-06T08:32:15.909Z,13.65
2023-05-06T08:35:02.328Z,14.30
2023-05-06T08:37:48.672Z,12.35
2023-05-06T08:40:40.926Z,12.25
2023-05-06T08:43:27.813Z,11.48
2023-05-06T08:46:14.736Z,10.93
2023-05-06T08:49:01.032Z,10.40
2023-05-06T08:51:49.448Z,10.17
2023-05-06T08:54:36.590Z,9.68
2023-05-06T08:57:22.752Z,9.60
2023-05-06T09:00:11.208Z,10.00
2023-05-06T09:02:57.722Z,9.70
2023-05-06T09:05:44.225Z,9.40
2023-05-06T09:08:30.783Z,10.05
2023-05-06T09:11:29.785Z,9.35
2023-05-06T09:14:17.401Z,8.60
2023-05-06T09:17:04.106Z,9.93
2023-05-06T09:19:54.663Z,9.60
2023-05-06T09:22:41.580Z,8.80
2023-05-06T09:25:28.649Z,9.52
2023-05-06T09:28:16.873Z,8.55
2023-05-06T09:31:03.789Z,9.20
2023-05-06T09:33:51.190Z,8.07
2023-05-06T09:36:37.454Z,8.52
2023-05-06T09:39:27.583Z,8.50
2023-05-06T09:42:14.326Z,7.97
2023-05-06T09:45:02.125Z,7.57
2023-05-06T09:47:53.865Z,6.85
2023-05-06T09:50:41.333Z,7.28
2023-05-06T09:53:28.102Z,7.15
2023-05-06T09:56:15.606Z,6.47
2023-05-06T09:59:04.292Z,6.87
2023-05-06T10:01:53.248Z,4.70
2023-05-06T10:04:44.686Z,5.00
2023-05-06T10:07:32.321Z,4.68
2023-05-06T10:10:18.671Z,4.10
2023-05-06T10:13:04.953Z,5.30
2023-05-06T10:15:51.933Z,5.55
2023-05-06T10:18:39.031Z,4.60
2023-05-06T10:21:28.090Z,5.62
2023-05-06T10:24:16.430Z,5.47
2023-05-06T10:27:05.078Z,6.00
2023-05-06T10:29:53.815Z,5.53
2023-05-06T10:32:43.437Z,5.10
2023-05-06T10:35:41.477Z,4.68
2023-05-06T10:38:36.531Z,5.03
2023-05-06T10:41:26.145Z,4.70
2023-05-06T10:44:12.985Z,4.18
2023-05-06T10:47:00.801Z,5.15
2023-05-06T10:50:22.913Z,4.72
2023-05-06T10:53:08.936Z,4.40
2023-05-06T10:56:09.023Z,5.15
2023-05-06T10:58:58.138Z,4.87
2023-05-06T11:01:45.079Z,4.80
2023-05-06T11:04:31.664Z,4.75
2023-05-06T11:07:24.576Z,4.55
2023-05-06T11:10:11.448Z,5.03
2023-05-06T11:12:58.079Z,4.35
2023-05-06T11:15:46.310Z,4.20
2023-05-06T11:18:36.888Z,4.40
2023-05-06T11:21:32.378Z,4.15
2023-05-06T11:24:29.906Z,4.22
2023-05-06T11:27:20.820Z,4.30
2023-05-06T11:30:13.738Z,4.70
2023-05-06T11:33:05.497Z,4.10
2023-05-06T11:35:53.188Z,4.22
2023-05-06T11:38:51.320Z,4.62
2023-05-06T11:41:41.422Z,4.65
2023-05-06T11:44:29.725Z,4.62
2023-05-06T11:47:16.237Z,5.80
2023-05-06T11:50:07.454Z,5.20
2023-05-06T11:52:53.824Z,5.30
2023-05-06T11:55:40.132Z,4.90
2023-05-06T11:58:28.089Z,5.45
2023-05-06T12:01:14.532Z,5.00
2023-05-06T12:04:02.251Z,5.53
2023-05-06T12:06:48.446Z,5.05
2023-05-06T12:09:36.150Z,4.87
2023-05-06T12:12:23.326Z,4.60
2023-05-06T12:15:10.963Z,4.90
2023-05-06T12:17:57.329Z,4.50
2023-05-06T12:20:44.424Z,4.55
2023-05-06T12:23:31.154Z,4.65
2023-05-06T12:26:19.216Z,4.80
2023-05-06T12:29:07.900Z,4.57
2023-05-06T12:32:08.313Z,4.70
2023-05-06T12:34:54.645Z,4.18
2023-05-06T12:37:41.288Z,4.87
2023-05-06T12:40:27.532Z,4.60
2023-05-06T12:43:14.086Z,4.60
2023-05-06T12:46:07.536Z,4.55
2023-05-06T12:48:58.352Z,4.62
2023-05-06T12:51:47.131Z,4.53
2023-05-06T12:54:34.123Z,4.40
2023-05-06T12:57:20.603Z,4.72
2023-05-06T13:00:07.985Z,4.43
2023-05-06T13:02:54.206Z,4.75
2023-05-06T13:05:40.729Z,4.47
2023-05-06T13:08:27.082Z,4.30
2023-05-06T13:11:13.387Z,4.40
2023-05-06T13:13:59.886Z,4.47
2023-05-06T13:16:46.680Z,4.20
2023-05-06T13:19:33.486Z,5.07
2023-05-06T13:22:20.223Z,4.80
2023-05-06T13:25:06.833Z,5.05
2023-05-06T13:27:53.469Z,4.43
2023-05-06T13:30:39.804Z,5.80
2023-05-06T13:33:26.345Z,6.03
2023-05-06T13:36:12.632Z,6.28
2023-05-06T13:38:59.036Z,6.55
2023-05-06T13:41:50.129Z,6.47
2023-05-06T13:44:36.455Z,6.75
2023-05-06T13:47:23.196Z,6.03
2023-05-06T13:50:10.266Z,6.43
2023-05-06T13:52:56.801Z,5.95
2023-05-06T13:55:43.295Z,6.07
2023-05-06T13:58:29.614Z,6.43
2023-05-06T14:01:15.986Z,5.60
2023-05-06T14:04:02.814Z,7.10
2023-05-06T14:06:49.216Z,6.60
2023-05-06T14:09:35.808Z,7.00
2023-05-06T14:12:23.028Z,7.00
2023-05-06T14:15:10.228Z,7.95
2023-05-06T14:17:57.749Z,7.65
2023-05-06T14:20:44.311Z,7.25
2023-05-06T14:23:30.752Z,7.20
2023-05-06T14:26:17.117Z,7.07
2023-05-06T14:29:03.835Z,7.15
2023-05-06T14:31:50.370Z,6.93
2023-05-06T14:34:36.982Z,6.47
2023-05-06T14:37:23.475Z,6.40
2023-05-06T14:40:10.487Z,6.80
2023-05-06T14:42:57.123Z,7.30
2023-05-06T14:45:43.116Z,9.00
2023-05-06T14:48:29.472Z,7.22
2023-05-06T14:51:16.761Z,8.05
2023-05-06T14:54:05.818Z,7.22
2023-05-06T14:56:52.811Z,7.30
2023-05-06T14:59:39.253Z,7.40
2023-05-06T15:02:25.712Z,7.83
2023-05-06T15:05:13.511Z,7.73
2023-05-06T15:08:00.180Z,7.70
2023-05-06T15:10:49.109Z,7.57
2023-05-06T15:13:35.525Z,7.72
2023-05-06T15:16:22.424Z,7.50
2023-05-06T15:19:08.702Z,7.62
2023-05-06T15:21:55.138Z,7.07
2023-05-06T15:24:41.766Z,7.47
2023-05-06T15:27:28.198Z,7.12
2023-05-06T15:30:14.740Z,7.35
2023-05-06T15:33:01.817Z,7.57
2023-05-06T15:35:48.336Z,7.45
2023-05-06T15:38:53.149Z,7.33
2023-05-06T15:41:39.201Z,7.72
2023-05-06T15:44:27.003Z,8.07
2023-05-06T15:47:13.181Z,7.93
2023-05-06T15:49:59.740Z,7.75
2023-05-06T15:52:46.241Z,9.13
2023-05-06T15:55:42.368Z,8.35
2023-05-06T15:58:31.214Z,7.60
2023-05-06T16:01:22.095Z,7.78
2023-05-06T16:04:16.512Z,7.80
2023-05-06T16:07:02.690Z,6.95
2023-05-06T16:09:49.836Z,7.47
2023-05-06T16:12:36.114Z,6.90
2023-05-06T16:15:22.494Z,6.68
2023-05-06T16:18:09.156Z,6.50
2023-05-06T16:20:55.798Z,7.10
2023-05-06T16:23:41.934Z,7.28
2023-05-06T16:26:28.210Z,6.32
2023-05-06T16:29:18.970Z,7.50
2023-05-06T16:32:06.015Z,6.80
2023-05-06T16:34:52.161Z,7.10
2023-05-06T16:37:38.648Z,7.30
2023-05-06T16:40:25.728Z,7.60
2023-05-06T16:43:12.247Z,7.15
2023-05-06T16:45:58.446Z,8.23
2023-05-06T16:48:45.051Z,9.57
2023-05-06T16:51:32.117Z,8.98
2023-05-06T16:54:18.842Z,9.38
2023-05-06T16:57:05.775Z,8.88
2023-05-06T16:59:52.068Z,7.80
2023-05-06T17:02:39.515Z,8.40
2023-05-06T17:05:28.046Z,8.77
2023-05-06T17:08:16.097Z,9.32
2023-05-06T17:11:05.373Z,9.53
2023-05-06T17:13:53.060Z,10.10
2023-05-06T17:16:40.404Z,10.57
2023-05-06T17:19:26.416Z,10.10
2023-05-06T17:22:12.788Z,9.00
2023-05-06T17:24:59.334Z,10.05
2023-05-06T17:27:48.954Z,9.05
2023-05-06T17:30:35.148Z,9.10
2023-05-06T17:33:22.594Z,9.07
2023-05-06T17:36:09.051Z,8.15
2023-05-06T17:39:05.737Z,8.73
2023-05-06T17:41:52.891Z,8.80
2023-05-06T17:44:42.620Z,8.77
2023-05-06T17:47:30.735Z,8.27
2023-05-06T17:50:17.516Z,8.57
2023-05-06T17:53:03.943Z,9.15
2023-05-06T17:55:50.585Z,10.52
2023-05-06T17:58:36.703Z,9.52
2023-05-06T18:01:23.138Z,10.00
2023-05-06T18:04:09.551Z,9.73
2023-05-06T18:06:56.024Z,10.57
2023-05-06T18:09:42.521Z,10.83
2023-05-06T18:12:29.026Z,10.63
2023-05-06T18:15:15.867Z,10.57
2023-05-06T18:18:02.282Z,9.30
2023-05-06T18:20:48.748Z,10.68
2023-05-06T18:23:35.336Z,9.85
2023-05-06T18:26:39.805Z,10.37
2023-05-06T18:29:30.361Z,9.90
2023-05-06T18:32:17.963Z,10.50
2023-05-06T18:35:04.584Z,9.87
2023-05-06T18:37:51.244Z,11.00
2023-05-06T18:40:37.934Z,11.38
2023-05-06T18:43:24.538Z,11.77
2023-05-06T18:46:11.753Z,10.77
2023-05-06T18:48:59.140Z,11.35
2023-05-06T18:51:45.325Z,10.90
2023-05-06T18:54:31.786Z,11.05
2023-05-06T18:57:19.575Z,10.80
2023-05-06T19:00:07.260Z,10.75
2023-05-06T19:02:53.532Z,11.23
2023-05-06T19:05:39.899Z,11.57
2023-05-06T19:08:26.286Z,10.90
2023-05-06T19:11:16.385Z,10.88
2023-05-06T19:14:03.020Z,10.60
2023-05-06T19:16:49.604Z,10.73
2023-05-06T19:19:35.930Z,10.35
2023-05-06T19:22:22.568Z,10.52
2023-05-06T19:25:09.333Z,11.27
2023-05-06T19:27:56.141Z,11.13
2023-05-06T19:30:42.548Z,11.03
2023-05-06T19:33:28.846Z,11.10
2023-05-06T19:36:16.507Z,11.77
2023-05-06T19:39:02.873Z,11.38
2023-05-06T19:41:49.350Z,9.68
2023-05-06T19:44:36.120Z,9.05
2023-05-06T19:47:22.559Z,9.30
2023-05-06T19:50:09.542Z,9.13
2023-05-06T19:52:55.897Z,9.90
2023-05-06T19:55:42.365Z,10.73
2023-05-06T19:58:28.690Z,10.80
2023-05-06T20:01:17.206Z,10.63
2023-05-06T20:04:04.105Z,11.13
2023-05-06T20:06:50.165Z,10.15
2023-05-06T20:09:36.758Z,10.50
2023-05-06T20:12:23.702Z,9.50
2023-05-06T20:15:10.521Z,10.45
2023-05-06T20:17:56.820Z,10.13
2023-05-06T20:20:43.470Z,9.95
2023-05-06T20:23:30.764Z,10.38
2023-05-06T20:26:17.341Z,10.77
2023-05-06T20:29:03.906Z,10.05
2023-05-06T20:31:50.800Z,9.80
2023-05-06T20:34:36.976Z,10.20
2023-05-06T20:37:23.532Z,10.50
2023-05-06T20:40:10.558Z,10.40
2023-05-06T20:42:57.483Z,10.45
2023-05-06T20:45:43.398Z,9.45
2023-05-06T20:48:31.301Z,10.35
2023-05-06T20:51:17.811Z,10.60
2023-05-06T20:54:04.690Z,9.80
2023-05-06T20:56:50.817Z,9.88
2023-05-06T20:59:37.698Z,10.60
2023-05-06T21:02:24.270Z,10.20
2023-05-06T21:05:13.502Z,9.98
